This is the latest recevied weather packets stored in our database for station/object EB2BAG-11. If no packets are shown the sender has not sent any weather packets the latest 10 day(s).
| Time | Temp. | Humidity | Pressure | Rain* | Wind** | Luminosity | Snow |
|---|---|---|---|---|---|---|---|
| 1778063774 | 15.56° C | 80% | 1015.7 hPa | - | - | - | - |
| 1778062574 | 15° C | 85% | 1015.7 hPa | - | - | - | - |
| 1778061374 | 14.44° C | 86% | 1015.8 hPa | - | - | - | - |
| 1778060174 | 14.44° C | 85% | 1015.8 hPa | - | - | - | - |
| 1778058974 | 14.44° C | 82% | 1015.7 hPa | - | - | - | - |
| 1778057773 | 13.33° C | 86% | 1015.7 hPa | - | - | - | - |
| 1778056573 | 13.89° C | 85% | 1015.5 hPa | - | - | - | - |
| 1778055373 | 13.33° C | 88% | 1015.3 hPa | - | - | - | - |
| 1778054173 | 13.89° C | 86% | 1015.2 hPa | - | - | - | - |
| 1778052973 | 13.89° C | 86% | 1015 hPa | - | - | - | - |
| 1778051773 | 13.33° C | 85% | 1015.1 hPa | - | - | - | - |
| 1778050573 | 12.78° C | 88% | 1015 hPa | - | - | - | - |
| 1778049373 | 12.22° C | 89% | 1014.9 hPa | - | - | - | - |
| 1778048173 | 11.67° C | 90% | 1014.9 hPa | - | - | - | - |
| 1778046973 | 11.67° C | 89% | 1015 hPa | - | - | - | - |
| 1778045773 | 11.67° C | 90% | 1015 hPa | - | - | - | - |
| 1778044572 | 12.22° C | 87% | 1014.7 hPa | - | - | - | - |
| 1778043372 | 12.22° C | 87% | 1014.7 hPa | - | - | - | - |
| 1778042172 | 12.78° C | 86% | 1014.6 hPa | - | - | - | - |
| 1778040972 | 12.22° C | 87% | 1014.5 hPa | - | - | - | - |
| 1778039772 | 12.22° C | 87% | 1014.4 hPa | - | - | - | - |
| 1778038572 | 12.22° C | 88% | 1014.7 hPa | - | - | - | - |
| 1778037372 | 12.22° C | 86% | 1014.6 hPa | - | - | - | - |
| 1778036172 | 12.78° C | 84% | 1014.6 hPa | - | - | - | - |
| 1778034972 | 12.78° C | 84% | 1014.7 hPa | - | - | - | - |
* Rain since midnight (hover to see other rain measurements)
** Current wind speed in m/s (hover to see current wind gust speed)